createdAt,value
2023-10-10T00:00:01.313Z,62.99
2023-10-10T00:02:30.362Z,62.81
2023-10-10T00:05:04.895Z,64.41
2023-10-10T00:07:36.329Z,64.04
2023-10-10T00:10:04.887Z,63.53
2023-10-10T00:12:36.501Z,63.17
2023-10-10T00:15:07.028Z,63.18
2023-10-10T00:17:42.658Z,63.27
2023-10-10T00:20:31.136Z,63.55
2023-10-10T00:23:05.755Z,63.43
2023-10-10T00:25:33.799Z,63.76
2023-10-10T00:28:06.782Z,63.76
2023-10-10T00:30:44.834Z,63.71
2023-10-10T00:33:17.431Z,64.19
2023-10-10T00:35:46.296Z,64.55
2023-10-10T00:38:20.708Z,64.32
2023-10-10T00:40:49.075Z,64.75
2023-10-10T00:43:18.477Z,64.29
2023-10-10T00:45:53.575Z,64.60
2023-10-10T00:48:24.826Z,64.71
2023-10-10T00:51:07.496Z,64.71
2023-10-10T00:53:37.317Z,64.52
2023-10-10T00:56:08.913Z,64.10
2023-10-10T00:58:38.661Z,64.36
2023-10-10T01:01:10.941Z,64.67
2023-10-10T01:03:50.908Z,64.48
2023-10-10T01:06:26.133Z,64.57
2023-10-10T01:09:14.795Z,64.68
2023-10-10T01:11:44.527Z,64.93
2023-10-10T01:14:19.726Z,65.36
2023-10-10T01:16:49.251Z,64.79
2023-10-10T01:19:19.527Z,65.12
2023-10-10T01:21:52.146Z,65.21
2023-10-10T01:24:23.103Z,65.35
2023-10-10T01:26:52.466Z,65.16
2023-10-10T01:29:28.082Z,64.13
2023-10-10T01:32:00.363Z,64.40
2023-10-10T01:34:45.164Z,64.20
2023-10-10T01:37:28.942Z,63.82
2023-10-10T01:40:20.715Z,63.80
2023-10-10T01:43:00.791Z,64.30
2023-10-10T01:45:28.964Z,64.97
2023-10-10T01:48:04.322Z,64.51
2023-10-10T01:50:32.405Z,64.22
2023-10-10T01:53:01.580Z,65.21
2023-10-10T01:55:29.480Z,65.20
2023-10-10T01:58:03.532Z,65.27
2023-10-10T02:00:35.888Z,64.85
2023-10-10T02:03:05.546Z,64.98
2023-10-10T02:05:36.599Z,65.33
2023-10-10T02:08:27.075Z,65.98
2023-10-10T02:10:57.120Z,66.04
2023-10-10T02:13:26.824Z,66.05
2023-10-10T02:15:54.727Z,66.60
2023-10-10T02:18:39.323Z,66.70
2023-10-10T02:21:16.880Z,67.24
2023-10-10T02:23:48.274Z,68.76
2023-10-10T02:26:25.294Z,70.04
2023-10-10T02:29:13.784Z,69.67
2023-10-10T02:31:43.666Z,68.22
2023-10-10T02:34:12.430Z,67.63
2023-10-10T02:36:42.480Z,66.10
2023-10-10T02:39:30.874Z,65.24
2023-10-10T02:42:04.232Z,64.57
2023-10-10T02:47:53.962Z,62.71
2023-10-10T02:50:41.284Z,61.96
2023-10-10T02:53:10.661Z,61.32
2023-10-10T02:55:42.991Z,60.96
2023-10-10T02:58:23.151Z,60.95
2023-10-10T03:00:53.015Z,60.16
2023-10-10T03:03:21.536Z,59.99
2023-10-10T03:05:55.439Z,59.56
2023-10-10T03:08:33.811Z,59.39
2023-10-10T03:11:16.545Z,59.09
2023-10-10T03:13:55.626Z,58.99
2023-10-10T03:16:24.485Z,58.85
2023-10-10T03:19:01.694Z,58.87
2023-10-10T03:21:48.643Z,59.01
2023-10-10T03:24:37.885Z,58.89
2023-10-10T03:27:20.830Z,58.67
2023-10-10T03:29:51.285Z,58.46
2023-10-10T03:32:34.751Z,58.30
2023-10-10T03:35:07.946Z,58.47
2023-10-10T03:37:55.880Z,58.75
2023-10-10T03:40:49.639Z,58.78
2023-10-10T03:43:36.312Z,59.08
2023-10-10T03:46:23.606Z,59.38
2023-10-10T03:49:18.422Z,59.20
2023-10-10T03:52:04.827Z,59.00
2023-10-10T03:54:51.258Z,59.04
2023-10-10T03:57:37.574Z,59.05
2023-10-10T04:00:24.732Z,59.79
2023-10-10T04:03:11.584Z,59.93
2023-10-10T04:05:58.226Z,61.38
2023-10-10T04:08:45.052Z,61.87
2023-10-10T04:11:32.491Z,61.79
2023-10-10T04:14:19.326Z,62.33
2023-10-10T04:17:06.036Z,63.15
2023-10-10T04:19:52.714Z,63.30
2023-10-10T04:22:39.048Z,63.54
2023-10-10T04:25:25.948Z,63.96
2023-10-10T04:28:12.745Z,65.52
2023-10-10T04:30:59.010Z,66.74
2023-10-10T04:33:45.384Z,66.12
2023-10-10T04:36:31.764Z,65.94
2023-10-10T04:39:17.966Z,66.34
2023-10-10T04:42:12.339Z,66.66
2023-10-10T04:44:58.917Z,66.86
2023-10-10T04:47:45.655Z,66.74
2023-10-10T04:50:32.374Z,66.17
2023-10-10T04:53:19.124Z,65.47
2023-10-10T04:56:05.854Z,65.22
2023-10-10T04:58:52.067Z,65.05
2023-10-10T05:01:38.646Z,64.69
2023-10-10T05:04:33.121Z,64.26
2023-10-10T05:07:19.853Z,64.37
2023-10-10T05:10:06.301Z,63.99
2023-10-10T05:12:52.601Z,63.95
2023-10-10T05:15:39.572Z,63.61
2023-10-10T05:18:26.607Z,63.26
2023-10-10T05:21:13.599Z,63.34
2023-10-10T05:23:49.174Z,63.25
2023-10-10T05:26:21.227Z,63.21
2023-10-10T05:28:50.057Z,62.98
2023-10-10T05:31:22.751Z,63.20
2023-10-10T05:33:52.343Z,62.83
2023-10-10T05:36:20.793Z,63.20
2023-10-10T05:38:51.893Z,63.39
2023-10-10T05:41:21.202Z,63.24
2023-10-10T05:43:52.559Z,63.13
2023-10-10T05:46:20.796Z,63.24
2023-10-10T05:48:48.749Z,63.30
2023-10-10T05:51:16.806Z,63.22
2023-10-10T05:53:47.850Z,63.08
2023-10-10T05:56:18.008Z,63.18
2023-10-10T05:58:48.603Z,63.06
2023-10-10T06:01:18.696Z,63.19
2023-10-10T06:03:47.092Z,63.09
2023-10-10T06:06:17.264Z,63.15
2023-10-10T06:08:46.507Z,62.79
2023-10-10T06:11:18.394Z,62.82
2023-10-10T06:13:48.067Z,62.63
2023-10-10T06:16:17.362Z,62.61
2023-10-10T06:18:48.122Z,62.74
2023-10-10T06:21:16.687Z,62.79
2023-10-10T06:23:46.363Z,63.33
2023-10-10T06:26:15.613Z,63.02
2023-10-10T06:28:47.037Z,62.56
2023-10-10T06:31:21.918Z,61.86
2023-10-10T06:33:57.886Z,61.53
2023-10-10T06:36:26.054Z,60.58
2023-10-10T06:39:05.926Z,60.50
2023-10-10T06:41:48.027Z,59.69
2023-10-10T06:44:16.704Z,58.90
2023-10-10T06:46:50.270Z,58.73
2023-10-10T06:49:22.472Z,58.41
2023-10-10T06:51:51.522Z,58.24
2023-10-10T06:54:29.093Z,58.28
2023-10-10T06:57:01.625Z,58.25
2023-10-10T06:59:31.089Z,58.23
2023-10-10T07:02:01.982Z,58.16
2023-10-10T07:04:30.411Z,58.24
2023-10-10T07:07:02.537Z,58.63
2023-10-10T07:09:37.539Z,57.13
2023-10-10T07:12:12.211Z,53.15
2023-10-10T07:14:55.754Z,51.14
2023-10-10T07:17:28.872Z,51.53
2023-10-10T07:20:17.540Z,53.48
2023-10-10T07:22:46.601Z,54.36
2023-10-10T07:25:41.396Z,53.25
2023-10-10T07:28:15.378Z,50.65
2023-10-10T07:30:45.626Z,50.99
2023-10-10T07:33:15.013Z,52.03
2023-10-10T07:35:46.209Z,54.10
2023-10-10T07:38:17.032Z,55.12
2023-10-10T07:40:45.031Z,55.82
2023-10-10T07:43:14.105Z,55.98
2023-10-10T07:45:45.036Z,56.80
2023-10-10T07:48:13.328Z,57.34
2023-10-10T07:50:58.130Z,57.47
2023-10-10T07:53:35.311Z,57.36
2023-10-10T07:56:03.421Z,57.13
2023-10-10T07:58:53.751Z,57.54
2023-10-10T08:01:22.441Z,58.35
2023-10-10T08:03:51.262Z,58.72
2023-10-10T08:06:23.784Z,59.33
2023-10-10T08:09:11.655Z,60.00
2023-10-10T08:11:40.074Z,59.85
2023-10-10T08:14:10.050Z,59.89
2023-10-10T08:16:44.616Z,59.64
2023-10-10T08:19:12.902Z,59.18
2023-10-10T08:21:50.582Z,58.98
2023-10-10T08:24:21.616Z,59.05
2023-10-10T08:26:52.997Z,58.95
2023-10-10T08:29:27.554Z,58.79
2023-10-10T08:31:55.600Z,59.29
2023-10-10T08:34:26.023Z,59.49
2023-10-10T08:37:04.586Z,59.41
2023-10-10T08:39:40.747Z,59.32
2023-10-10T08:42:16.419Z,59.74
2023-10-10T08:44:50.457Z,59.13
2023-10-10T08:47:33.921Z,59.09
2023-10-10T08:50:02.538Z,58.67
2023-10-10T08:52:33.881Z,58.00
2023-10-10T08:55:03.066Z,57.36
2023-10-10T08:57:31.788Z,56.85
2023-10-10T09:00:00.739Z,55.86
2023-10-10T09:02:35.204Z,55.79
2023-10-10T09:05:05.662Z,56.30
2023-10-10T09:07:34.126Z,55.66
2023-10-10T09:10:15.439Z,52.60
2023-10-10T09:12:54.698Z,50.89
2023-10-10T09:15:23.849Z,51.33
2023-10-10T09:18:00.030Z,53.33
2023-10-10T09:20:33.782Z,52.51
2023-10-10T09:23:13.528Z,52.84
2023-10-10T09:25:49.860Z,53.52
2023-10-10T09:28:18.294Z,55.88
2023-10-10T09:31:13.801Z,55.86
2023-10-10T09:33:47.115Z,56.50
2023-10-10T09:36:21.187Z,56.42
2023-10-10T09:38:55.900Z,57.34
2023-10-10T09:41:33.122Z,56.84
2023-10-10T09:44:40.883Z,57.51
2023-10-10T09:47:10.476Z,57.16
2023-10-10T09:49:53.235Z,57.00
2023-10-10T09:52:41.956Z,57.30
2023-10-10T09:55:15.214Z,57.55
2023-10-10T09:58:00.148Z,57.75
2023-10-10T10:00:34.681Z,57.60
2023-10-10T10:03:24.231Z,56.83
2023-10-10T10:06:30.143Z,56.84
2023-10-10T10:09:19.263Z,56.44
2023-10-10T10:12:21.258Z,56.13
2023-10-10T10:14:56.013Z,56.87
2023-10-10T10:17:55.816Z,57.31
2023-10-10T10:20:51.591Z,56.97
2023-10-10T10:23:27.620Z,57.09
2023-10-10T10:26:28.353Z,56.89
2023-10-10T10:28:59.520Z,56.79
2023-10-10T10:31:38.510Z,56.56
2023-10-10T10:34:17.909Z,57.18
2023-10-10T10:36:55.683Z,57.19
2023-10-10T10:39:36.210Z,57.32
2023-10-10T10:42:17.151Z,57.75
2023-10-10T10:44:46.444Z,57.51
2023-10-10T10:47:36.740Z,57.57
2023-10-10T10:50:29.035Z,57.48
2023-10-10T10:53:05.948Z,57.32
2023-10-10T10:55:41.108Z,57.49
2023-10-10T10:58:35.372Z,57.47
2023-10-10T11:01:18.018Z,57.82
2023-10-10T11:03:46.592Z,57.82
2023-10-10T11:06:15.928Z,57.71
2023-10-10T11:11:26.809Z,57.90
2023-10-10T11:14:21.179Z,58.32
2023-10-10T11:16:57.881Z,58.24
2023-10-10T11:19:30.492Z,58.56
2023-10-10T11:22:06.886Z,58.34
2023-10-10T11:24:36.160Z,58.08
2023-10-10T11:27:13.057Z,58.17
2023-10-10T11:29:52.408Z,58.69
2023-10-10T11:32:26.415Z,58.23
2023-10-10T11:35:13.274Z,59.00
2023-10-10T11:37:45.539Z,59.60
2023-10-10T11:40:21.146Z,59.66
2023-10-10T11:42:51.049Z,60.83
2023-10-10T11:45:27.645Z,63.24
2023-10-10T11:48:06.789Z,63.34
2023-10-10T11:50:58.727Z,62.77
2023-10-10T11:53:29.170Z,62.00
2023-10-10T11:56:12.852Z,61.30
2023-10-10T11:58:40.978Z,60.95
2023-10-10T12:01:09.546Z,60.24
2023-10-10T12:03:41.645Z,59.36
2023-10-10T12:06:21.239Z,59.47
2023-10-10T12:08:50.538Z,59.83
2023-10-10T12:11:23.881Z,59.81
2023-10-10T12:13:53.973Z,58.80
2023-10-10T12:16:25.928Z,57.79
2023-10-10T12:18:55.581Z,56.31
2023-10-10T12:21:25.120Z,56.38
2023-10-10T12:24:00.504Z,54.78
2023-10-10T12:26:31.235Z,54.58
2023-10-10T12:28:59.814Z,54.21
2023-10-10T12:31:28.233Z,53.81
2023-10-10T12:33:56.185Z,54.29
2023-10-10T12:36:30.589Z,53.75
2023-10-10T12:39:06.152Z,54.23
2023-10-10T12:41:47.921Z,54.54
2023-10-10T12:44:16.573Z,53.99
2023-10-10T12:46:44.746Z,54.27
2023-10-10T12:49:13.224Z,54.63
2023-10-10T12:51:46.345Z,54.72
2023-10-10T12:54:18.651Z,55.52
2023-10-10T12:57:12.917Z,56.32
2023-10-10T12:59:41.126Z,56.93
2023-10-10T13:02:15.219Z,56.89
2023-10-10T13:04:48.232Z,57.41
2023-10-10T13:07:19.606Z,57.58
2023-10-10T13:09:48.273Z,57.95
2023-10-10T13:12:29.119Z,57.88
2023-10-10T13:15:17.527Z,57.98
2023-10-10T13:17:52.049Z,58.29
2023-10-10T13:20:24.808Z,58.65
2023-10-10T13:22:52.993Z,58.48
2023-10-10T13:25:21.794Z,57.97
2023-10-10T13:27:53.970Z,57.22
2023-10-10T13:30:22.169Z,57.34
2023-10-10T13:32:50.312Z,57.11
2023-10-10T13:35:21.699Z,56.73
2023-10-10T13:38:10.175Z,56.11
2023-10-10T13:40:50.690Z,56.58
2023-10-10T13:43:19.251Z,56.68
2023-10-10T13:45:52.621Z,56.36
2023-10-10T13:48:23.734Z,56.43
2023-10-10T13:50:57.607Z,56.29
2023-10-10T13:53:25.748Z,55.97
2023-10-10T13:55:53.730Z,56.53
2023-10-10T13:58:21.807Z,56.44
2023-10-10T14:00:57.431Z,56.34
2023-10-10T14:03:36.828Z,56.39
2023-10-10T14:06:05.765Z,56.37
2023-10-10T14:08:34.404Z,56.62
2023-10-10T14:11:03.328Z,56.42
2023-10-10T14:13:31.770Z,56.67
2023-10-10T14:15:59.826Z,56.09
2023-10-10T14:18:44.889Z,55.97
2023-10-10T14:21:13.637Z,55.92
2023-10-10T14:23:42.009Z,55.64
2023-10-10T14:26:14.550Z,55.93
2023-10-10T14:28:51.550Z,56.03
2023-10-10T14:31:24.755Z,55.90
2023-10-10T14:33:53.075Z,55.89
2023-10-10T14:36:22.338Z,56.24
2023-10-10T14:38:51.796Z,56.03
2023-10-10T14:41:26.853Z,56.58
2023-10-10T14:43:56.043Z,56.59
2023-10-10T14:46:28.830Z,57.56
2023-10-10T14:49:16.263Z,57.98
2023-10-10T14:51:52.006Z,57.67
2023-10-10T14:54:20.967Z,58.70
2023-10-10T14:56:51.595Z,58.17
2023-10-10T14:59:26.218Z,58.36
2023-10-10T15:01:54.587Z,58.20
2023-10-10T15:04:23.103Z,57.86
2023-10-10T15:06:55.979Z,58.35
2023-10-10T15:09:28.204Z,58.40
2023-10-10T15:12:01.454Z,58.02
2023-10-10T15:14:33.830Z,57.97
2023-10-10T15:17:06.414Z,57.98
2023-10-10T15:19:35.504Z,58.21
2023-10-10T15:22:04.398Z,58.63
2023-10-10T15:24:34.625Z,58.89
2023-10-10T15:27:02.880Z,59.06
2023-10-10T15:29:34.382Z,58.69
2023-10-10T15:32:05.001Z,58.84
2023-10-10T15:34:33.295Z,59.29
2023-10-10T15:37:13.395Z,59.41
2023-10-10T15:39:43.036Z,59.54
2023-10-10T15:42:12.801Z,59.51
2023-10-10T15:44:42.934Z,59.43
2023-10-10T15:47:11.775Z,59.44
2023-10-10T15:49:40.770Z,59.27
2023-10-10T15:52:09.485Z,59.44
2023-10-10T15:54:37.660Z,59.84
2023-10-10T15:57:07.584Z,59.88
2023-10-10T15:59:37.256Z,59.48
2023-10-10T16:02:11.274Z,60.03
2023-10-10T16:04:44.254Z,60.22
2023-10-10T16:07:13.053Z,60.14
2023-10-10T16:09:41.364Z,60.30
2023-10-10T16:12:14.219Z,60.62
2023-10-10T16:14:42.766Z,60.68
2023-10-10T16:17:17.729Z,61.00
2023-10-10T16:19:46.688Z,61.16
2023-10-10T16:22:15.049Z,61.04
2023-10-10T16:24:43.475Z,61.02
2023-10-10T16:27:11.583Z,61.25
2023-10-10T16:29:39.875Z,60.98
2023-10-10T16:32:09.923Z,61.40
2023-10-10T16:34:43.990Z,61.36
2023-10-10T16:37:15.850Z,61.65
2023-10-10T16:39:46.773Z,61.61
2023-10-10T16:42:25.110Z,61.61
2023-10-10T16:44:55.089Z,62.27
2023-10-10T16:47:24.236Z,62.35
2023-10-10T16:49:52.780Z,62.63
2023-10-10T16:52:21.661Z,62.37
2023-10-10T16:54:53.492Z,62.86
2023-10-10T16:57:26.087Z,63.20
2023-10-10T16:59:58.149Z,63.11
2023-10-10T17:02:30.488Z,63.34
2023-10-10T17:05:06.428Z,63.51
2023-10-10T17:07:35.185Z,63.54
2023-10-10T17:10:07.473Z,63.88
2023-10-10T17:12:36.390Z,64.11
2023-10-10T17:15:06.438Z,64.18
2023-10-10T17:17:37.248Z,64.44
2023-10-10T17:20:06.635Z,64.79
2023-10-10T17:22:35.392Z,64.45
2023-10-10T17:25:04.702Z,65.01
2023-10-10T17:27:35.163Z,65.73
2023-10-10T17:30:06.128Z,66.54
2023-10-10T17:32:35.077Z,66.55
2023-10-10T17:35:06.695Z,67.01
2023-10-10T17:37:36.379Z,66.59
2023-10-10T17:40:12.133Z,66.44
2023-10-10T17:42:45.683Z,66.48
2023-10-10T17:45:14.564Z,66.85
2023-10-10T17:47:43.252Z,67.65
2023-10-10T17:50:13.090Z,67.53
2023-10-10T17:52:44.894Z,67.09
2023-10-10T17:55:15.228Z,67.45
2023-10-10T17:57:44.327Z,68.18
2023-10-10T18:00:15.741Z,68.04
2023-10-10T18:02:48.309Z,68.62
2023-10-10T18:05:18.207Z,67.77
2023-10-10T18:07:47.000Z,67.83
2023-10-10T18:10:16.040Z,67.93
2023-10-10T18:12:45.110Z,68.29
2023-10-10T18:15:14.197Z,68.56
2023-10-10T18:17:43.860Z,68.96
2023-10-10T18:20:21.002Z,69.17
2023-10-10T18:22:53.428Z,69.46
2023-10-10T18:25:25.168Z,69.31
2023-10-10T18:27:54.754Z,70.13
2023-10-10T18:30:24.048Z,69.93
2023-10-10T18:32:53.256Z,69.60
2023-10-10T18:35:28.438Z,69.58
2023-10-10T18:37:57.513Z,69.74
2023-10-10T18:40:27.552Z,69.94
2023-10-10T18:42:56.916Z,69.85
2023-10-10T18:45:27.446Z,70.00
2023-10-10T18:47:56.446Z,70.53
2023-10-10T18:50:25.036Z,70.68
2023-10-10T18:52:55.669Z,70.88
2023-10-10T18:55:31.240Z,71.01
2023-10-10T18:58:08.112Z,70.95
2023-10-10T19:00:38.112Z,71.38
2023-10-10T19:03:08.814Z,71.50
2023-10-10T19:05:37.946Z,71.67
2023-10-10T19:08:07.096Z,71.57
2023-10-10T19:10:39.802Z,71.70
2023-10-10T19:13:10.749Z,72.16
2023-10-10T19:15:39.544Z,72.28
2023-10-10T19:18:08.775Z,73.10
2023-10-10T19:20:38.488Z,73.46
2023-10-10T19:23:17.936Z,73.14
2023-10-10T19:25:49.428Z,73.30
2023-10-10T19:28:18.569Z,72.93
2023-10-10T19:30:47.487Z,72.92
2023-10-10T19:33:16.769Z,73.18
2023-10-10T19:35:45.865Z,73.32
2023-10-10T19:38:15.137Z,73.17
2023-10-10T19:40:45.575Z,73.39
2023-10-10T19:43:14.577Z,73.94
2023-10-10T19:45:43.513Z,75.76
2023-10-10T19:48:17.234Z,75.35
2023-10-10T19:50:49.118Z,75.24
2023-10-10T19:53:18.341Z,74.88
2023-10-10T19:55:50.941Z,75.23
2023-10-10T19:58:22.516Z,74.83
2023-10-10T20:00:51.360Z,75.04
2023-10-10T20:03:23.775Z,74.80
2023-10-10T20:05:54.297Z,75.32
2023-10-10T20:08:22.969Z,75.91
2023-10-10T20:10:52.279Z,75.66
2023-10-10T20:13:22.282Z,75.54
2023-10-10T20:15:54.228Z,76.25
2023-10-10T20:18:22.909Z,76.39
2023-10-10T20:20:53.496Z,75.91
2023-10-10T20:23:24.115Z,75.68
2023-10-10T20:25:52.624Z,75.73
2023-10-10T20:28:20.843Z,76.25
2023-10-10T20:30:49.113Z,76.77
2023-10-10T20:33:17.862Z,77.06
2023-10-10T20:35:47.170Z,76.83
2023-10-10T20:38:21.169Z,76.76
2023-10-10T20:40:49.458Z,76.46
2023-10-10T20:43:17.607Z,76.54
2023-10-10T20:45:45.632Z,76.34
2023-10-10T20:48:23.289Z,76.63
2023-10-10T20:50:51.663Z,76.96
2023-10-10T20:53:21.129Z,76.98
2023-10-10T20:55:51.298Z,76.44
2023-10-10T20:58:20.173Z,76.89
2023-10-10T21:00:48.111Z,76.72
2023-10-10T21:03:16.699Z,76.50
2023-10-10T21:05:44.871Z,75.64
2023-10-10T21:08:13.250Z,76.49
2023-10-10T21:10:41.887Z,78.13
2023-10-10T21:13:09.923Z,77.51
2023-10-10T21:15:38.007Z,78.60
2023-10-10T21:18:09.522Z,78.88
2023-10-10T21:20:56.557Z,78.90
2023-10-10T21:23:28.593Z,78.92
2023-10-10T21:25:56.662Z,78.28
2023-10-10T21:28:25.902Z,78.61
2023-10-10T21:30:54.173Z,78.06
2023-10-10T21:33:22.542Z,78.80
2023-10-10T21:35:51.135Z,78.91
2023-10-10T21:38:25.223Z,79.16
2023-10-10T21:41:03.429Z,78.79
2023-10-10T21:43:31.882Z,78.86
2023-10-10T21:45:59.869Z,78.44
2023-10-10T21:48:28.012Z,78.31
2023-10-10T21:50:59.498Z,78.44
2023-10-10T21:53:29.901Z,78.46
2023-10-10T21:56:01.053Z,78.34
2023-10-10T21:58:29.240Z,77.80
2023-10-10T22:00:57.148Z,78.13
2023-10-10T22:03:26.950Z,77.63
2023-10-10T22:05:55.166Z,77.66
2023-10-10T22:08:27.279Z,77.71
2023-10-10T22:11:01.169Z,77.82
2023-10-10T22:13:30.638Z,77.89
2023-10-10T22:15:58.737Z,77.52
2023-10-10T22:18:26.877Z,78.15
2023-10-10T22:20:57.498Z,77.91
2023-10-10T22:23:27.855Z,77.70
2023-10-10T22:26:03.064Z,77.93
2023-10-10T22:28:33.084Z,77.97
2023-10-10T22:31:01.092Z,77.97
2023-10-10T22:33:31.248Z,78.21
2023-10-10T22:36:02.138Z,77.92
2023-10-10T22:38:30.239Z,78.10
2023-10-10T22:40:59.265Z,77.96
2023-10-10T22:43:27.658Z,77.76
2023-10-10T22:45:55.747Z,77.98
2023-10-10T22:48:23.987Z,77.70
2023-10-10T22:50:54.570Z,77.69
2023-10-10T22:53:22.677Z,77.96
2023-10-10T22:55:50.563Z,78.17
2023-10-10T22:58:21.766Z,78.42
2023-10-10T23:00:49.999Z,78.23
2023-10-10T23:03:20.887Z,78.59
2023-10-10T23:05:49.168Z,78.82
2023-10-10T23:08:17.487Z,78.78
2023-10-10T23:10:49.503Z,78.11
2023-10-10T23:13:18.023Z,78.26
2023-10-10T23:15:50.265Z,78.35
2023-10-10T23:18:18.988Z,78.59
2023-10-10T23:20:47.662Z,78.87
2023-10-10T23:23:17.480Z,78.03
2023-10-10T23:25:48.655Z,77.57
2023-10-10T23:28:16.681Z,78.17
2023-10-10T23:30:44.732Z,78.30
2023-10-10T23:33:14.235Z,78.73
2023-10-10T23:35:42.854Z,78.28
2023-10-10T23:38:12.111Z,78.52
2023-10-10T23:40:40.992Z,78.63
2023-10-10T23:43:10.456Z,78.85
2023-10-10T23:45:44.527Z,78.59
2023-10-10T23:48:17.273Z,79.27
2023-10-10T23:50:46.774Z,77.95
2023-10-10T23:53:15.468Z,77.48
2023-10-10T23:55:48.383Z,77.23
2023-10-10T23:58:17.004Z,77.57
